createdAt,value
2023-02-04T00:00:19.039Z,97688.69
2023-02-04T00:02:46.712Z,97687.03
2023-02-04T00:05:14.876Z,97693.47
2023-02-04T00:07:42.369Z,97698.94
2023-02-04T00:10:10.885Z,97700.84
2023-02-04T00:12:39.828Z,97695.03
2023-02-04T00:15:08.044Z,97704.06
2023-02-04T00:17:35.621Z,97703.81
2023-02-04T00:20:03.141Z,97704.88
2023-02-04T00:22:30.842Z,97705.25
2023-02-04T00:24:58.461Z,97707.50
2023-02-04T00:27:25.973Z,97710.94
2023-02-04T00:29:54.820Z,97707.50
2023-02-04T00:32:22.412Z,97712.75
2023-02-04T00:34:49.967Z,97709.16
2023-02-04T00:37:17.539Z,97723.06
2023-02-04T00:39:45.050Z,97725.09
2023-02-04T00:42:12.582Z,97733.88
2023-02-04T00:44:40.110Z,97734.97
2023-02-04T00:47:09.247Z,97741.72
2023-02-04T00:49:36.812Z,97737.34
2023-02-04T00:52:04.503Z,97746.03
2023-02-04T00:54:32.020Z,97754.34
2023-02-04T00:56:59.649Z,97747.69
2023-02-04T00:59:27.156Z,97741.88
2023-02-04T01:01:54.685Z,97744.00
2023-02-04T01:04:23.536Z,97757.34
2023-02-04T01:06:51.037Z,97748.41
2023-02-04T01:09:18.641Z,97771.00
2023-02-04T01:11:46.433Z,97752.31
2023-02-04T01:14:13.945Z,97761.84
2023-02-04T01:16:41.632Z,97759.09
2023-02-04T01:19:09.215Z,97751.84
2023-02-04T01:21:39.841Z,97750.91
2023-02-04T01:24:08.448Z,97749.25
2023-02-04T01:26:35.988Z,97764.47
2023-02-04T01:29:03.533Z,97745.06
2023-02-04T01:31:32.834Z,97756.13
2023-02-04T01:34:01.170Z,97752.69
2023-02-04T01:36:29.040Z,97764.34
2023-02-04T01:38:58.254Z,97759.84
2023-02-04T01:41:26.820Z,97756.25
2023-02-04T01:43:54.813Z,97763.53
2023-02-04T01:46:22.429Z,97754.22
2023-02-04T01:48:49.932Z,97763.88
2023-02-04T01:51:28.423Z,97760.66
2023-02-04T01:53:56.271Z,97771.50
2023-02-04T01:56:27.140Z,97756.38
2023-02-04T01:58:56.020Z,97773.25
2023-02-04T02:01:37.712Z,97779.69
2023-02-04T02:04:06.473Z,97779.06
2023-02-04T02:06:33.997Z,97788.84
2023-02-04T02:09:02.192Z,97787.03
2023-02-04T02:11:31.319Z,97773.84
2023-02-04T02:13:58.838Z,97794.78
2023-02-04T02:16:26.417Z,97796.22
2023-02-04T02:18:54.548Z,97789.31
2023-02-04T02:21:27.734Z,97794.41
2023-02-04T02:23:57.964Z,97802.41
2023-02-04T02:26:25.733Z,97812.50
2023-02-04T02:28:53.373Z,97814.41
2023-02-04T02:31:22.550Z,97811.31
2023-02-04T02:33:50.485Z,97807.25
2023-02-04T02:36:18.254Z,97813.06
2023-02-04T02:38:45.804Z,97803.22
2023-02-04T02:41:14.694Z,97799.78
2023-02-04T02:43:42.334Z,97801.31
2023-02-04T02:46:10.268Z,97799.53
2023-02-04T02:48:37.862Z,97803.09
2023-02-04T02:51:05.504Z,97810.69
2023-02-04T02:53:33.028Z,97812.59
2023-02-04T02:56:04.510Z,97821.66
2023-02-04T02:58:36.287Z,97826.66
2023-02-04T03:01:06.593Z,97817.50
2023-02-04T03:03:35.453Z,97820.22
2023-02-04T03:06:06.548Z,97831.38
2023-02-04T03:08:34.296Z,97835.91
2023-02-04T03:11:02.021Z,97821.88
2023-02-04T03:13:29.861Z,97836.41
2023-02-04T03:15:58.889Z,97841.84
2023-02-04T03:18:27.107Z,97842.09
2023-02-04T03:20:54.679Z,97849.94
2023-02-04T03:23:22.265Z,97851.16
2023-02-04T03:25:49.812Z,97856.81
2023-02-04T03:28:17.463Z,97854.81
2023-02-04T03:30:53.726Z,97871.00
2023-02-04T03:33:23.222Z,97877.41
2023-02-04T03:35:51.434Z,97876.09
2023-02-04T03:38:20.012Z,97895.13
2023-02-04T03:40:47.687Z,97883.34
2023-02-04T03:43:15.286Z,97885.13
2023-02-04T03:45:45.700Z,97896.03
2023-02-04T03:48:13.629Z,97901.28
2023-02-04T03:50:42.619Z,97891.75
2023-02-04T03:53:10.175Z,97890.31
2023-02-04T03:55:37.735Z,97904.56
2023-02-04T03:58:05.891Z,97901.78
2023-02-04T04:00:34.591Z,97900.84
2023-02-04T04:03:02.197Z,97906.53
2023-02-04T04:05:29.780Z,97917.25
2023-02-04T04:07:59.156Z,97922.38
2023-02-04T04:10:26.856Z,97936.19
2023-02-04T04:12:54.353Z,97936.69
2023-02-04T04:15:21.922Z,97939.75
2023-02-04T04:17:49.800Z,97943.31
2023-02-04T04:20:17.639Z,97955.19
2023-02-04T04:22:45.662Z,97958.03
2023-02-04T04:25:14.581Z,97966.22
2023-02-04T04:27:42.128Z,97979.50
2023-02-04T04:30:10.775Z,97979.06
2023-02-04T04:32:38.619Z,97977.41
2023-02-04T04:35:06.562Z,97981.91
2023-02-04T04:37:35.175Z,97992.59
2023-02-04T04:40:02.886Z,97989.53
2023-02-04T04:42:31.773Z,98005.78
2023-02-04T04:44:59.266Z,98004.94
2023-02-04T04:47:27.242Z,97991.69
2023-02-04T04:49:54.785Z,98006.09
2023-02-04T04:52:22.306Z,98010.59
2023-02-04T04:54:49.788Z,98028.38
2023-02-04T04:57:17.301Z,98036.22
2023-02-04T04:59:46.187Z,98061.63
2023-02-04T05:02:13.689Z,98083.81
2023-02-04T05:04:41.216Z,98116.22
2023-02-04T05:07:08.813Z,98120.88
2023-02-04T05:09:36.328Z,98132.56
2023-02-04T05:12:03.968Z,98147.13
2023-02-04T05:14:31.533Z,98152.41
2023-02-04T05:17:00.408Z,98147.50
2023-02-04T05:19:27.938Z,98144.59
2023-02-04T05:21:55.460Z,98164.78
2023-02-04T05:24:23.230Z,98161.25
2023-02-04T05:26:50.764Z,98163.13
2023-02-04T05:29:18.321Z,98173.53
2023-02-04T05:31:45.971Z,98174.28
2023-02-04T05:34:14.875Z,98181.44
2023-02-04T05:36:42.397Z,98181.34
2023-02-04T05:39:10.095Z,98191.66
2023-02-04T05:41:37.590Z,98186.19
2023-02-04T05:44:05.747Z,98187.31
2023-02-04T05:46:34.247Z,98202.47
2023-02-04T05:49:02.083Z,98200.59
2023-02-04T05:51:30.905Z,98216.22
2023-02-04T05:53:58.433Z,98222.19
2023-02-04T05:56:26.256Z,98224.72
2023-02-04T05:58:53.800Z,98230.84
2023-02-04T06:01:21.309Z,98242.03
2023-02-04T06:03:48.941Z,98246.31
2023-02-04T06:06:16.478Z,98253.31
2023-02-04T06:08:45.317Z,98261.19
2023-02-04T06:11:13.308Z,98266.50
2023-02-04T06:13:40.827Z,98278.31
2023-02-04T06:16:09.237Z,98289.59
2023-02-04T06:18:36.796Z,98292.09
2023-02-04T06:21:08.938Z,98293.88
2023-02-04T06:23:36.456Z,98298.44
2023-02-04T06:26:05.584Z,98296.00
2023-02-04T06:28:33.182Z,98305.75
2023-02-04T06:31:00.812Z,98313.56
2023-02-04T06:33:28.444Z,98312.81
2023-02-04T06:35:56.044Z,98310.50
2023-02-04T06:38:23.544Z,98311.88
2023-02-04T06:40:53.701Z,98316.50
2023-02-04T06:43:23.968Z,98312.91
2023-02-04T06:45:52.092Z,98321.56
2023-02-04T06:48:19.950Z,98318.28
2023-02-04T06:50:47.439Z,98333.41
2023-02-04T06:53:14.966Z,98338.69
2023-02-04T06:55:42.498Z,98345.75
2023-02-04T06:58:10.065Z,98359.34
2023-02-04T07:00:38.903Z,98360.56
2023-02-04T07:03:07.426Z,98376.59
2023-02-04T07:05:34.997Z,98382.44
2023-02-04T07:08:02.692Z,98386.66
2023-02-04T07:10:30.505Z,98393.72
2023-02-04T07:12:58.334Z,98403.28
2023-02-04T07:15:25.893Z,98402.34
2023-02-04T07:17:54.901Z,98408.31
2023-02-04T07:20:22.420Z,98410.69
2023-02-04T07:22:49.947Z,98415.28
2023-02-04T07:25:17.956Z,98417.53
2023-02-04T07:27:45.812Z,98416.78
2023-02-04T07:30:14.558Z,98416.84
2023-02-04T07:32:42.069Z,98429.81
2023-02-04T07:35:11.771Z,98420.47
2023-02-04T07:37:39.452Z,98436.88
2023-02-04T07:40:08.158Z,98436.56
2023-02-04T07:42:35.766Z,98435.13
2023-02-04T07:45:03.278Z,98437.16
2023-02-04T07:47:30.813Z,98445.22
2023-02-04T07:49:58.319Z,98453.69
2023-02-04T07:52:27.497Z,98465.56
2023-02-04T07:54:55.026Z,98467.00
2023-02-04T07:57:22.542Z,98462.09
2023-02-04T07:59:50.085Z,98461.16
2023-02-04T08:02:17.680Z,98457.81
2023-02-04T08:04:45.221Z,98467.31
2023-02-04T08:07:12.739Z,98455.03
2023-02-04T08:09:41.571Z,98449.69
2023-02-04T08:12:09.306Z,98461.25
2023-02-04T08:14:37.388Z,98471.34
2023-02-04T08:17:04.913Z,98473.13
2023-02-04T08:19:32.395Z,98479.91
2023-02-04T08:21:59.893Z,98479.09
2023-02-04T08:24:27.378Z,98489.59
2023-02-04T08:26:56.238Z,98492.94
2023-02-04T08:29:25.615Z,98498.41
2023-02-04T08:31:53.163Z,98503.00
2023-02-04T08:34:20.743Z,98493.25
2023-02-04T08:36:48.371Z,98495.88
2023-02-04T08:39:15.962Z,98503.16
2023-02-04T08:41:43.760Z,98514.84
2023-02-04T08:44:12.724Z,98516.00
2023-02-04T08:46:40.312Z,98524.13
2023-02-04T08:49:07.893Z,98523.97
2023-02-04T08:51:35.432Z,98518.38
2023-02-04T08:54:02.934Z,98516.72
2023-02-04T08:56:31.396Z,98520.63
2023-02-04T08:58:58.945Z,98522.38
2023-02-04T09:01:27.814Z,98531.94
2023-02-04T09:03:55.293Z,98529.59
2023-02-04T09:06:22.781Z,98536.81
2023-02-04T09:08:50.301Z,98545.44
2023-02-04T09:11:17.791Z,98523.50
2023-02-04T09:13:45.527Z,98552.25
2023-02-04T09:16:13.113Z,98548.03
2023-02-04T09:18:41.961Z,98549.56
2023-02-04T09:21:09.505Z,98557.94
2023-02-04T09:23:37.031Z,98565.13
2023-02-04T09:26:06.286Z,98562.47
2023-02-04T09:28:33.925Z,98563.28
2023-02-04T09:31:03.062Z,98564.03
2023-02-04T09:33:31.954Z,98557.72
2023-02-04T09:36:00.820Z,98561.66
2023-02-04T09:38:28.374Z,98561.47
2023-02-04T09:40:59.313Z,98570.47
2023-02-04T09:43:29.569Z,98566.31
2023-02-04T09:45:57.608Z,98574.38
2023-02-04T09:48:25.756Z,98576.03
2023-02-04T09:50:54.087Z,98600.78
2023-02-04T09:53:24.497Z,98605.84
2023-02-04T09:55:52.869Z,98626.75
2023-02-04T09:58:22.207Z,98613.19
2023-02-04T10:00:54.120Z,98630.75
2023-02-04T10:03:22.045Z,98634.84
2023-02-04T10:05:50.959Z,98625.22
2023-02-04T10:08:20.329Z,98620.94
2023-02-04T10:10:50.466Z,98629.28
2023-02-04T10:13:19.644Z,98626.03
2023-02-04T10:15:47.803Z,98623.44
2023-02-04T10:18:21.423Z,98628.56
2023-02-04T10:20:48.913Z,98627.88
2023-02-04T10:23:16.615Z,98624.06
2023-02-04T10:25:44.166Z,98613.78
2023-02-04T10:28:13.326Z,98609.59
2023-02-04T10:30:42.076Z,98635.22
2023-02-04T10:33:14.476Z,98628.50
2023-02-04T10:35:46.588Z,98641.28
2023-02-04T10:38:14.502Z,98629.81
2023-02-04T10:40:42.776Z,98633.59
2023-02-04T10:43:11.902Z,98641.59
2023-02-04T10:45:40.790Z,98638.59
2023-02-04T10:48:08.935Z,98628.34
2023-02-04T10:50:36.768Z,98628.31
2023-02-04T10:53:22.077Z,98637.75
2023-02-04T10:55:51.278Z,98634.94
2023-02-04T10:58:22.029Z,98640.00
2023-02-04T11:00:51.021Z,98637.84
2023-02-04T11:03:22.696Z,98634.50
2023-02-04T11:05:50.968Z,98638.19
2023-02-04T11:08:22.099Z,98652.84
2023-02-04T11:10:52.049Z,98659.13
2023-02-04T11:13:25.110Z,98661.91
2023-02-04T11:16:10.809Z,98659.69
2023-02-04T11:18:49.535Z,98658.00
2023-02-04T11:21:24.852Z,98658.56
2023-02-04T11:23:52.710Z,98654.44
2023-02-04T11:26:33.267Z,98662.75
2023-02-04T11:29:25.562Z,98656.22
2023-02-04T11:32:03.079Z,98647.13
2023-02-04T11:34:46.668Z,98648.13
2023-02-04T11:37:35.693Z,98641.00
2023-02-04T11:40:13.565Z,98640.78
2023-02-04T11:42:42.513Z,98638.59
2023-02-04T11:45:16.047Z,98629.50
2023-02-04T11:47:45.462Z,98636.63
2023-02-04T11:50:17.184Z,98646.38
2023-02-04T11:52:44.772Z,98631.59
2023-02-04T11:55:13.392Z,98646.88
2023-02-04T11:57:41.418Z,98653.59
2023-02-04T12:00:14.892Z,98648.56
2023-02-04T12:02:45.581Z,98645.56
2023-02-04T12:05:14.987Z,98650.16
2023-02-04T12:07:42.821Z,98647.84
2023-02-04T12:10:25.440Z,98647.56
2023-02-04T12:12:57.727Z,98646.16
2023-02-04T12:15:26.450Z,98652.78
2023-02-04T12:18:07.262Z,98658.75
2023-02-04T12:20:35.118Z,98654.25
2023-02-04T12:23:02.938Z,98646.03
2023-02-04T12:25:30.848Z,98641.81
2023-02-04T12:27:59.156Z,98636.31
2023-02-04T12:30:28.124Z,98639.19
2023-02-04T12:32:55.679Z,98645.50
2023-02-04T12:35:24.572Z,98640.31
2023-02-04T12:37:52.092Z,98641.69
2023-02-04T12:40:21.238Z,98639.56
2023-02-04T12:42:48.938Z,98636.19
2023-02-04T12:45:17.800Z,98647.47
2023-02-04T12:47:45.685Z,98644.69
2023-02-04T12:50:14.578Z,98641.69
2023-02-04T12:52:43.737Z,98653.81
2023-02-04T12:55:11.302Z,98642.22
2023-02-04T12:57:38.800Z,98649.31
2023-02-04T13:00:07.471Z,98640.88
2023-02-04T13:02:34.973Z,98642.44
2023-02-04T13:05:02.471Z,98641.72
2023-02-04T13:07:30.143Z,98650.34
2023-02-04T13:09:58.998Z,98649.22
2023-02-04T13:12:26.885Z,98650.94
2023-02-04T13:14:54.658Z,98640.72
2023-02-04T13:17:22.269Z,98657.19
2023-02-04T13:19:49.760Z,98656.66
2023-02-04T13:22:17.300Z,98657.59
2023-02-04T13:24:44.808Z,98656.25
2023-02-04T13:27:15.227Z,98654.69
2023-02-04T13:29:42.729Z,98662.22
2023-02-04T13:32:10.492Z,98664.00
2023-02-04T13:34:38.124Z,98655.72
2023-02-04T13:37:05.622Z,98664.63
2023-02-04T13:39:33.144Z,98664.22
2023-02-04T13:42:00.684Z,98667.78
2023-02-04T13:44:29.574Z,98678.03
2023-02-04T13:46:57.085Z,98668.81
2023-02-04T13:49:24.624Z,98661.69
2023-02-04T13:51:52.373Z,98670.38
2023-02-04T13:54:19.880Z,98658.88
2023-02-04T13:56:47.461Z,98666.63
2023-02-04T13:59:14.986Z,98667.53
2023-02-04T14:01:43.804Z,98667.66
2023-02-04T14:04:20.408Z,98660.91
2023-02-04T14:06:48.006Z,98673.34
2023-02-04T14:09:15.825Z,98674.97
2023-02-04T14:11:43.353Z,98678.13
2023-02-04T14:14:11.003Z,98674.34
2023-02-04T14:16:38.516Z,98679.00
2023-02-04T14:19:07.597Z,98674.34
2023-02-04T14:21:35.151Z,98675.72
2023-02-04T14:24:02.682Z,98673.59
2023-02-04T14:26:30.183Z,98682.84
2023-02-04T14:28:57.704Z,98696.97
2023-02-04T14:31:25.265Z,98695.75
2023-02-04T14:33:52.791Z,98689.00
2023-02-04T14:36:24.081Z,98683.03
2023-02-04T14:38:51.607Z,98697.84
2023-02-04T14:41:21.358Z,98700.38
2023-02-04T14:43:48.910Z,98698.53
2023-02-04T14:46:16.472Z,98698.72
2023-02-04T14:48:45.427Z,98714.13
2023-02-04T14:51:13.566Z,98706.75
2023-02-04T14:53:48.097Z,98708.44
2023-02-04T14:56:16.026Z,98717.66
2023-02-04T14:58:43.697Z,98713.22
2023-02-04T15:01:11.374Z,98716.69
2023-02-04T15:03:38.882Z,98725.72
2023-02-04T15:06:06.966Z,98723.28
2023-02-04T15:08:34.482Z,98724.97
2023-02-04T15:11:03.322Z,98731.72
2023-02-04T15:13:30.843Z,98739.72
2023-02-04T15:15:58.340Z,98737.84
2023-02-04T15:18:26.047Z,98740.31
2023-02-04T15:20:53.560Z,98747.06
2023-02-04T15:23:21.279Z,98741.38
2023-02-04T15:25:48.765Z,98742.66
2023-02-04T15:28:17.608Z,98750.41
2023-02-04T15:30:45.277Z,98747.88
2023-02-04T15:33:13.912Z,98751.44
2023-02-04T15:35:41.425Z,98756.91
2023-02-04T15:38:09.005Z,98757.28
2023-02-04T15:40:36.746Z,98755.34
2023-02-04T15:43:04.276Z,98760.00
2023-02-04T15:45:33.123Z,98757.66
2023-02-04T15:48:00.659Z,98761.38
2023-02-04T15:50:29.386Z,98757.50
2023-02-04T15:52:57.434Z,98753.97
2023-02-04T15:55:24.996Z,98752.63
2023-02-04T15:57:52.483Z,98759.94
2023-02-04T16:00:20.613Z,98758.44
2023-02-04T16:02:49.718Z,98763.72
2023-02-04T16:05:17.500Z,98772.31
2023-02-04T16:07:45.022Z,98765.28
2023-02-04T16:10:12.674Z,98770.31
2023-02-04T16:12:40.664Z,98778.91
2023-02-04T16:15:09.065Z,98780.84
2023-02-04T16:17:36.671Z,98790.53
2023-02-04T16:20:06.789Z,98779.31
2023-02-04T16:22:34.472Z,98779.56
2023-02-04T16:25:02.189Z,98785.81
2023-02-04T16:27:31.743Z,98779.72
2023-02-04T16:29:59.223Z,98791.25
2023-02-04T16:32:27.043Z,98791.66
2023-02-04T16:34:56.735Z,98785.94
2023-02-04T16:37:25.630Z,98787.78
2023-02-04T16:39:53.352Z,98792.16
2023-02-04T16:42:20.966Z,98801.31
2023-02-04T16:44:48.504Z,98801.47
2023-02-04T16:47:16.091Z,98811.31
2023-02-04T16:49:44.805Z,98811.72
2023-02-04T16:52:12.482Z,98793.25
2023-02-04T16:54:41.588Z,98800.69
2023-02-04T16:57:09.086Z,98809.34
2023-02-04T16:59:38.333Z,98795.19
2023-02-04T17:02:05.979Z,98803.22
2023-02-04T17:04:34.627Z,98816.78
2023-02-04T17:07:02.176Z,98814.66
2023-02-04T17:09:30.010Z,98804.84
2023-02-04T17:11:58.927Z,98825.22
2023-02-04T17:14:26.564Z,98830.50
2023-02-04T17:16:54.091Z,98836.56
2023-02-04T17:19:21.761Z,98834.56
2023-02-04T17:21:49.629Z,98835.56
2023-02-04T17:24:17.220Z,98838.91
2023-02-04T17:26:45.189Z,98834.56
2023-02-04T17:29:17.203Z,98834.41
2023-02-04T17:31:44.946Z,98837.88
2023-02-04T17:34:12.514Z,98841.53
2023-02-04T17:36:40.121Z,98835.69
2023-02-04T17:39:08.405Z,98837.94
2023-02-04T17:41:36.408Z,98841.56
2023-02-04T17:44:04.191Z,98848.25
2023-02-04T17:46:34.337Z,98854.38
2023-02-04T17:49:01.937Z,98858.06
2023-02-04T17:51:29.550Z,98868.63
2023-02-04T17:53:57.256Z,98868.63
2023-02-04T17:56:26.036Z,98863.47
2023-02-04T17:58:55.589Z,98864.97
2023-02-04T18:01:25.250Z,98870.22
2023-02-04T18:03:54.583Z,98864.34
2023-02-04T18:06:23.841Z,98868.91
2023-02-04T18:08:52.713Z,98862.97
2023-02-04T18:11:21.834Z,98867.72
2023-02-04T18:13:49.705Z,98865.88
2023-02-04T18:16:24.215Z,98874.75
2023-02-04T18:18:54.744Z,98880.03
2023-02-04T18:21:24.960Z,98872.16
2023-02-04T18:24:01.430Z,98879.09
2023-02-04T18:26:29.407Z,98881.03
2023-02-04T18:28:57.045Z,98886.44
2023-02-04T18:31:35.014Z,98883.06
2023-02-04T18:34:12.910Z,98878.06
2023-02-04T18:36:40.585Z,98880.97
2023-02-04T18:39:16.354Z,98878.59
2023-02-04T18:41:45.048Z,98868.53
2023-02-04T18:44:23.336Z,98874.06
2023-02-04T18:46:50.994Z,98869.47
2023-02-04T18:49:26.655Z,98871.88
2023-02-04T18:51:54.384Z,98865.59
2023-02-04T18:54:36.431Z,98868.88
2023-02-04T18:57:28.623Z,98865.31
2023-02-04T19:00:25.340Z,98871.78
2023-02-04T19:02:55.339Z,98871.41
2023-02-04T19:05:29.884Z,98868.41
2023-02-04T19:08:18.569Z,98867.16
2023-02-04T19:10:46.188Z,98868.63
2023-02-04T19:13:19.277Z,98866.41
2023-02-04T19:15:55.107Z,98862.94
2023-02-04T19:18:25.516Z,98875.09
2023-02-04T19:20:54.507Z,98871.97
2023-02-04T19:23:23.741Z,98880.88
2023-02-04T19:25:52.589Z,98889.09
2023-02-04T19:28:28.991Z,98884.88
2023-02-04T19:31:00.584Z,98883.69
2023-02-04T19:33:29.980Z,98881.44
2023-02-04T19:35:59.633Z,98885.84
2023-02-04T19:38:36.896Z,98884.22
2023-02-04T19:41:20.880Z,98890.38
2023-02-04T19:43:49.492Z,98883.31
2023-02-04T19:46:21.927Z,98877.50
2023-02-04T19:48:49.453Z,98891.31
2023-02-04T19:51:26.620Z,98890.72
2023-02-04T19:53:59.104Z,98897.88
2023-02-04T19:56:33.629Z,98901.59
2023-02-04T19:59:15.666Z,98901.59
2023-02-04T20:01:43.152Z,98903.66
2023-02-04T20:04:14.818Z,98901.19
2023-02-04T20:06:45.438Z,98899.69
2023-02-04T20:09:16.857Z,98892.97
2023-02-04T20:11:54.529Z,98895.56
2023-02-04T20:14:28.216Z,98900.19
2023-02-04T20:16:58.424Z,98907.88
2023-02-04T20:19:29.229Z,98911.00
2023-02-04T20:22:12.169Z,98912.75
2023-02-04T20:24:42.314Z,98909.44
2023-02-04T20:27:17.828Z,98921.53
2023-02-04T20:29:45.361Z,98915.72
2023-02-04T20:32:18.572Z,98915.84
2023-02-04T20:34:46.145Z,98924.56
2023-02-04T20:37:22.103Z,98924.72
2023-02-04T20:39:49.717Z,98929.16
2023-02-04T20:42:36.064Z,98927.56
2023-02-04T20:45:21.794Z,98937.09
2023-02-04T20:47:50.131Z,98941.50
2023-02-04T20:50:38.987Z,98941.38
2023-02-04T20:53:31.067Z,98948.25
2023-02-04T20:56:03.702Z,98944.22
2023-02-04T20:58:35.699Z,98933.19
2023-02-04T21:01:03.273Z,98950.19
2023-02-04T21:03:35.480Z,98942.84
2023-02-04T21:06:04.239Z,98940.34
2023-02-04T21:08:41.747Z,98950.66
2023-02-04T21:11:09.773Z,98949.72
2023-02-04T21:13:37.640Z,98949.09
2023-02-04T21:16:05.675Z,98963.78
2023-02-04T21:18:34.889Z,98953.38
2023-02-04T21:21:03.754Z,98960.19
2023-02-04T21:23:31.499Z,98952.25
2023-02-04T21:26:01.665Z,98944.81
2023-02-04T21:28:29.622Z,98959.25
2023-02-04T21:30:57.221Z,98954.94
2023-02-04T21:33:24.814Z,98957.47
2023-02-04T21:35:52.364Z,98959.25
2023-02-04T21:38:19.882Z,98955.97
2023-02-04T21:40:47.451Z,98961.94
2023-02-04T21:43:16.301Z,98968.91
2023-02-04T21:45:43.886Z,98970.72
2023-02-04T21:48:11.421Z,98967.44
2023-02-04T21:50:39.430Z,98973.50
2023-02-04T21:53:07.526Z,98976.00
2023-02-04T21:55:35.819Z,98972.69
2023-02-04T21:58:03.672Z,98963.22
2023-02-04T22:00:32.571Z,98967.91
2023-02-04T22:03:00.165Z,98964.56
2023-02-04T22:05:27.859Z,98969.53
2023-02-04T22:07:55.381Z,98959.06
2023-02-04T22:10:25.201Z,98960.16
2023-02-04T22:12:52.844Z,98965.38
2023-02-04T22:15:22.504Z,98961.94
2023-02-04T22:17:52.706Z,98956.00
2023-02-04T22:20:21.325Z,98965.63
2023-02-04T22:22:49.572Z,98964.81
2023-02-04T22:25:20.023Z,98953.94
2023-02-04T22:27:48.072Z,98965.97
2023-02-04T22:30:16.690Z,98965.34
2023-02-04T22:32:44.254Z,98965.56
2023-02-04T22:35:13.224Z,98968.13
2023-02-04T22:37:41.641Z,98968.16
2023-02-04T22:40:11.802Z,98973.28
2023-02-04T22:42:39.405Z,98976.88
2023-02-04T22:45:08.017Z,98981.16
2023-02-04T22:47:35.541Z,98980.28
2023-02-04T22:50:03.102Z,98970.94
2023-02-04T22:52:32.015Z,98974.38
2023-02-04T22:54:59.696Z,98963.50
2023-02-04T22:57:27.199Z,98976.19
2023-02-04T22:59:54.723Z,98977.16
2023-02-04T23:02:22.248Z,98968.59
2023-02-04T23:04:49.757Z,98977.97
2023-02-04T23:07:17.315Z,98970.28
2023-02-04T23:09:46.181Z,98971.81
2023-02-04T23:12:13.744Z,98971.97
2023-02-04T23:14:42.493Z,98970.19
2023-02-04T23:17:10.229Z,98969.41
2023-02-04T23:19:38.026Z,98975.38
2023-02-04T23:22:06.192Z,98974.41
2023-02-04T23:24:34.461Z,98974.50
2023-02-04T23:27:04.210Z,98988.50
2023-02-04T23:29:35.114Z,98979.75
2023-02-04T23:32:03.127Z,98984.25
2023-02-04T23:34:30.741Z,98992.09
2023-02-04T23:36:58.360Z,98984.34
2023-02-04T23:39:25.887Z,98985.97
2023-02-04T23:41:53.433Z,98979.19
2023-02-04T23:44:22.265Z,98986.19
2023-02-04T23:46:49.857Z,98989.63
2023-02-04T23:49:17.558Z,98983.00
2023-02-04T23:51:45.986Z,98983.78
2023-02-04T23:54:13.545Z,98985.56
2023-02-04T23:56:41.143Z,98978.56
2023-02-04T23:59:09.010Z,98973.38
